Time;durP1;ratioP1;P1;durP2;ratioP2;P2;SDS_P1;SDS_P2;PMS_P1;PMS_P2;Temp;Humidity;BMP_temperature;BMP_pressure;BME280_temperature;BME280_humidity;BME280_pressure;Samples;Min_cycle;Max_cycle;Signal;HPM_P1;HPM_P2
2024/03/03 00:01:02;;;;;;;25.80;14.27;;;;;;;;;;4996626;28;20069;-86
2024/03/03 00:03:30;;;;;;;26.75;14.73;;;;;;;;;;4995668;28;20046;-86
2024/03/03 00:06:02;;;;;;;22.95;14.25;;;;;;;;;;4989046;28;20054;-86
2024/03/03 00:08:29;;;;;;;28.05;15.13;;;;;;;;;;5002745;28;20532;-85
2024/03/03 00:10:56;;;;;;;25.38;14.95;;;;;;;;;;5002312;28;20399;-86
2024/03/03 00:13:24;;;;;;;25.20;14.50;;;;;;;;;;5002494;28;20077;-85
2024/03/03 00:15:52;;;;;;;24.30;14.65;;;;;;;;;;4986944;28;20050;-86
2024/03/03 00:18:19;;;;;;;27.77;15.82;;;;;;;;;;4994016;28;20046;-85
2024/03/03 00:20:46;;;;;;;29.40;15.35;;;;;;;;;;4986197;28;20053;-85
2024/03/03 00:23:13;;;;;;;26.92;15.05;;;;;;;;;;5001048;28;20128;-86
2024/03/03 00:25:41;;;;;;;23.27;13.75;;;;;;;;;;4986336;28;20078;-85
2024/03/03 00:28:08;;;;;;;25.83;14.57;;;;;;;;;;5001700;28;20057;-86
2024/03/03 00:30:35;;;;;;;24.38;13.85;;;;;;;;;;5001108;28;20058;-85
2024/03/03 00:33:03;;;;;;;24.58;14.20;;;;;;;;;;5001635;28;20501;-86
2024/03/03 00:35:30;;;;;;;26.70;14.77;;;;;;;;;;5001730;28;20054;-86
2024/03/03 00:37:57;;;;;;;31.08;14.27;;;;;;;;;;4986192;28;20464;-86
2024/03/03 00:40:24;;;;;;;25.25;15.25;;;;;;;;;;4992530;28;20116;-85
2024/03/03 00:42:52;;;;;;;25.08;14.75;;;;;;;;;;4985810;28;20420;-86
2024/03/03 00:45:19;;;;;;;27.77;14.25;;;;;;;;;;5001325;28;20054;-86
2024/03/03 00:47:48;;;;;;;24.42;14.48;;;;;;;;;;4993096;28;20046;-85
2024/03/03 00:50:15;;;;;;;25.13;15.13;;;;;;;;;;4992928;28;20049;-86
2024/03/03 00:52:43;;;;;;;27.27;14.40;;;;;;;;;;4983304;28;20055;-85
2024/03/03 00:55:10;;;;;;;27.90;14.25;;;;;;;;;;4988035;28;20061;-86
2024/03/03 00:57:37;;;;;;;27.95;14.30;;;;;;;;;;5000773;28;20061;-86
2024/03/03 01:00:05;;;;;;;26.00;15.27;;;;;;;;;;4992485;28;20053;-86
2024/03/03 01:02:32;;;;;;;23.27;13.73;;;;;;;;;;4991374;28;20397;-86
2024/03/03 01:04:59;;;;;;;22.83;13.75;;;;;;;;;;4986597;28;20055;-85
2024/03/03 01:07:27;;;;;;;22.58;13.82;;;;;;;;;;5001038;28;20501;-86
2024/03/03 01:09:54;;;;;;;27.95;15.38;;;;;;;;;;4992361;28;20121;-85
2024/03/03 01:12:21;;;;;;;27.00;14.23;;;;;;;;;;4985812;28;20054;-86
2024/03/03 01:14:48;;;;;;;25.70;15.20;;;;;;;;;;4985069;28;20050;-85
2024/03/03 01:17:16;;;;;;;26.40;14.93;;;;;;;;;;5000716;28;20109;-85
2024/03/03 01:19:43;;;;;;;28.10;15.82;;;;;;;;;;4985347;28;20073;-86
2024/03/03 01:22:11;;;;;;;33.13;17.40;;;;;;;;;;4992397;28;20489;-85
2024/03/03 01:24:38;;;;;;;23.35;14.15;;;;;;;;;;4990115;28;20054;-86
2024/03/03 01:27:05;;;;;;;25.48;14.73;;;;;;;;;;4981981;28;20054;-86
2024/03/03 01:29:33;;;;;;;26.60;13.90;;;;;;;;;;4990419;28;20058;-86
2024/03/03 01:32:03;;;;;;;23.23;13.23;;;;;;;;;;4992196;28;20051;-85
2024/03/03 01:34:30;;;;;;;25.90;13.30;;;;;;;;;;4991102;28;20050;-86
2024/03/03 01:36:58;;;;;;;24.73;14.32;;;;;;;;;;4986023;28;20564;-86
2024/03/03 01:39:25;;;;;;;23.63;13.60;;;;;;;;;;5000480;28;20512;-86
2024/03/03 01:41:52;;;;;;;24.98;14.43;;;;;;;;;;4996810;28;20053;-86
2024/03/03 01:44:19;;;;;;;24.48;13.88;;;;;;;;;;4993008;28;20083;-86
2024/03/03 01:46:46;;;;;;;31.95;14.98;;;;;;;;;;4988390;28;20078;-86
2024/03/03 01:49:16;;;;;;;30.10;15.25;;;;;;;;;;4989446;28;20050;-86
2024/03/03 01:51:45;;;;;;;30.13;15.23;;;;;;;;;;4993279;28;20058;-86
2024/03/03 01:54:12;;;;;;;33.33;15.57;;;;;;;;;;4991628;28;20054;-86
2024/03/03 01:56:40;;;;;;;31.15;16.25;;;;;;;;;;5004218;28;20050;-85
2024/03/03 01:59:09;;;;;;;27.90;16.70;;;;;;;;;;4989156;28;20109;-85
2024/03/03 02:01:37;;;;;;;35.20;18.15;;;;;;;;;;4993636;28;20109;-86
2024/03/03 02:04:05;;;;;;;27.88;15.48;;;;;;;;;;4986186;28;20051;-85
2024/03/03 02:06:34;;;;;;;42.22;17.35;;;;;;;;;;4987781;28;20141;-85
2024/03/03 02:09:02;;;;;;;27.40;14.95;;;;;;;;;;4996109;28;20064;-85
2024/03/03 02:11:29;;;;;;;24.73;14.70;;;;;;;;;;4997008;28;20109;-85
2024/03/03 02:13:57;;;;;;;25.73;14.20;;;;;;;;;;4997652;28;20054;-86
2024/03/03 02:16:25;;;;;;;28.02;14.90;;;;;;;;;;4992859;28;20503;-86
2024/03/03 02:18:52;;;;;;;27.23;15.05;;;;;;;;;;4996159;28;20240;-86
2024/03/03 02:21:23;;;;;;;25.00;14.48;;;;;;;;;;4996153;28;20069;-85
2024/03/03 02:23:51;;;;;;;26.48;15.35;;;;;;;;;;5000657;28;20577;-86
2024/03/03 02:26:19;;;;;;;26.02;15.13;;;;;;;;;;4992583;28;20600;-85
2024/03/03 02:28:47;;;;;;;27.98;15.32;;;;;;;;;;4996029;28;20097;-86
2024/03/03 02:31:14;;;;;;;23.77;15.68;;;;;;;;;;4989081;28;20077;-86
2024/03/03 02:33:42;;;;;;;27.13;15.88;;;;;;;;;;4991645;28;20061;-86
2024/03/03 02:36:11;;;;;;;30.50;16.05;;;;;;;;;;4994518;28;20520;-85
2024/03/03 02:38:41;;;;;;;28.58;15.75;;;;;;;;;;4994794;28;20105;-87
2024/03/03 02:41:08;;;;;;;34.60;17.25;;;;;;;;;;4996358;28;20051;-86
2024/03/03 02:43:35;;;;;;;32.25;16.77;;;;;;;;;;4994029;28;20070;-86
2024/03/03 02:46:02;;;;;;;29.15;16.38;;;;;;;;;;4992957;28;20054;-86
2024/03/03 02:48:30;;;;;;;25.08;15.15;;;;;;;;;;5004312;28;20142;-86
2024/03/03 02:50:58;;;;;;;35.45;16.52;;;;;;;;;;4995384;28;20060;-86
2024/03/03 02:53:25;;;;;;;27.40;15.73;;;;;;;;;;4994304;28;20066;-86
2024/03/03 02:55:52;;;;;;;33.92;15.65;;;;;;;;;;4984976;28;20113;-86
2024/03/03 02:58:19;;;;;;;27.65;15.45;;;;;;;;;;4991463;28;20124;-86
2024/03/03 03:00:47;;;;;;;30.00;15.02;;;;;;;;;;5003041;28;20055;-85
2024/03/03 03:03:14;;;;;;;34.80;17.80;;;;;;;;;;5003083;28;20049;-86
2024/03/03 03:05:41;;;;;;;35.90;16.77;;;;;;;;;;5003129;28;20097;-86
2024/03/03 03:08:09;;;;;;;33.00;17.75;;;;;;;;;;4994989;28;20054;-86
2024/03/03 03:10:36;;;;;;;35.08;18.83;;;;;;;;;;4992668;28;20109;-86
2024/03/03 03:13:04;;;;;;;47.05;19.25;;;;;;;;;;4989359;28;20471;-86
2024/03/03 03:15:35;;;;;;;49.72;21.73;;;;;;;;;;5003019;28;20054;-86
2024/03/03 03:18:06;;;;;;;44.63;20.65;;;;;;;;;;5000436;28;20056;-86
2024/03/03 03:20:34;;;;;;;39.97;20.08;;;;;;;;;;4994713;28;20133;-86
2024/03/03 03:23:02;;;;;;;43.00;20.58;;;;;;;;;;4988826;28;20050;-86
2024/03/03 03:25:29;;;;;;;40.72;20.55;;;;;;;;;;5002923;28;20104;-86
2024/03/03 03:27:57;;;;;;;51.60;22.95;;;;;;;;;;4994686;28;20046;-86
2024/03/03 03:30:24;;;;;;;42.20;20.25;;;;;;;;;;4994130;28;20505;-86
2024/03/03 03:32:51;;;;;;;46.95;21.92;;;;;;;;;;4987467;28;20453;-86
2024/03/03 03:35:18;;;;;;;48.70;21.52;;;;;;;;;;5003046;28;20050;-86
2024/03/03 03:37:46;;;;;;;49.53;23.02;;;;;;;;;;5002221;28;20472;-86
2024/03/03 03:40:13;;;;;;;45.00;21.23;;;;;;;;;;4987863;28;20472;-86
2024/03/03 03:42:41;;;;;;;45.25;21.17;;;;;;;;;;4991652;28;20125;-86
2024/03/03 03:45:08;;;;;;;53.28;22.83;;;;;;;;;;4989441;28;20054;-86
2024/03/03 03:47:36;;;;;;;48.38;22.17;;;;;;;;;;5002166;28;20509;-85
2024/03/03 03:50:03;;;;;;;48.80;22.60;;;;;;;;;;4994311;28;20073;-86
2024/03/03 03:52:30;;;;;;;45.70;21.05;;;;;;;;;;4993352;28;20424;-86
2024/03/03 03:54:58;;;;;;;46.95;21.58;;;;;;;;;;4987623;28;20539;-86
2024/03/03 03:57:25;;;;;;;46.33;21.70;;;;;;;;;;4987349;28;20502;-86
2024/03/03 03:59:52;;;;;;;43.58;20.17;;;;;;;;;;4993887;28;20051;-85
2024/03/03 04:02:19;;;;;;;68.28;22.20;;;;;;;;;;4986710;28;20429;-86
2024/03/03 04:04:47;;;;;;;43.63;20.13;;;;;;;;;;4983086;28;20106;-86
2024/03/03 04:07:15;;;;;;;51.97;21.58;;;;;;;;;;4989801;28;20485;-86
2024/03/03 04:09:42;;;;;;;48.25;21.42;;;;;;;;;;5002262;28;20556;-86
2024/03/03 04:12:09;;;;;;;41.92;20.75;;;;;;;;;;4987503;28;20050;-86
2024/03/03 04:14:37;;;;;;;43.25;20.83;;;;;;;;;;4991753;28;20054;-86
2024/03/03 04:17:04;;;;;;;38.58;19.70;;;;;;;;;;4988510;28;20417;-85
2024/03/03 04:19:31;;;;;;;38.88;19.50;;;;;;;;;;5001577;28;20102;-86
2024/03/03 04:21:59;;;;;;;34.63;19.48;;;;;;;;;;4986331;28;20054;-86
2024/03/03 04:24:26;;;;;;;60.63;20.77;;;;;;;;;;4993004;28;20051;-85
2024/03/03 04:26:53;;;;;;;41.63;19.20;;;;;;;;;;4990393;28;20054;-86
2024/03/03 04:29:22;;;;;;;45.97;20.50;;;;;;;;;;5005033;28;20050;-86
2024/03/03 04:31:50;;;;;;;44.72;18.92;;;;;;;;;;4983053;28;20055;-86
2024/03/03 04:34:17;;;;;;;46.72;20.45;;;;;;;;;;4989319;28;20046;-85
2024/03/03 04:36:45;;;;;;;55.75;21.10;;;;;;;;;;5001317;28;20508;-86
2024/03/03 04:39:12;;;;;;;41.03;18.60;;;;;;;;;;4993192;28;20050;-86
2024/03/03 04:41:40;;;;;;;49.20;20.30;;;;;;;;;;4990613;28;20101;-85
2024/03/03 04:44:08;;;;;;;32.92;17.58;;;;;;;;;;4987638;28;20056;-85
2024/03/03 04:46:35;;;;;;;36.30;19.00;;;;;;;;;;5001025;28;20096;-86
2024/03/03 04:49:02;;;;;;;44.35;19.33;;;;;;;;;;4992971;28;20061;-86
2024/03/03 04:51:30;;;;;;;33.88;17.60;;;;;;;;;;4992697;28;20057;-86
2024/03/03 04:53:59;;;;;;;37.58;18.25;;;;;;;;;;4984879;28;20141;-86
2024/03/03 04:56:27;;;;;;;51.63;20.05;;;;;;;;;;4992638;28;20529;-85
2024/03/03 04:58:54;;;;;;;41.33;18.17;;;;;;;;;;4995390;28;20058;-86
2024/03/03 05:01:22;;;;;;;37.78;19.65;;;;;;;;;;4989213;28;20047;-86
2024/03/03 05:03:49;;;;;;;42.83;19.42;;;;;;;;;;4985011;28;20421;-85
2024/03/03 05:06:17;;;;;;;35.53;19.13;;;;;;;;;;4992708;28;20425;-85
2024/03/03 05:08:44;;;;;;;38.70;18.63;;;;;;;;;;4989634;28;20055;-86
2024/03/03 05:11:11;;;;;;;40.90;19.92;;;;;;;;;;4987930;28;20063;-85
2024/03/03 05:13:39;;;;;;;54.70;22.00;;;;;;;;;;5030864;23;20042;-81
2024/03/03 05:16:09;;;;;;;41.25;20.05;;;;;;;;;;5033800;28;20053;-80
2024/03/03 05:18:36;;;;;;;35.75;19.67;;;;;;;;;;5032689;28;20103;-80
2024/03/03 05:21:03;;;;;;;38.58;18.77;;;;;;;;;;5033911;28;20053;-80
2024/03/03 05:23:32;;;;;;;38.40;19.98;;;;;;;;;;5033172;28;20050;-81
2024/03/03 05:25:59;;;;;;;48.72;19.60;;;;;;;;;;5034183;28;20076;-81
2024/03/03 05:28:27;;;;;;;54.28;19.48;;;;;;;;;;5032935;28;20081;-81
2024/03/03 05:30:55;;;;;;;43.58;19.70;;;;;;;;;;5032982;28;20500;-81
2024/03/03 05:33:22;;;;;;;49.05;19.60;;;;;;;;;;5034329;28;20132;-80
2024/03/03 05:35:49;;;;;;;41.60;19.10;;;;;;;;;;5034322;28;20057;-81
2024/03/03 05:38:16;;;;;;;34.45;18.13;;;;;;;;;;5035009;28;20562;-81
2024/03/03 05:40:44;;;;;;;42.45;19.08;;;;;;;;;;5033574;28;20041;-80
2024/03/03 05:43:11;;;;;;;37.42;18.77;;;;;;;;;;5034975;28;20053;-80
2024/03/03 05:45:38;;;;;;;43.85;18.63;;;;;;;;;;5033429;28;20049;-81
2024/03/03 05:48:05;;;;;;;33.65;17.05;;;;;;;;;;5032993;28;20057;-81
2024/03/03 05:50:33;;;;;;;38.30;19.92;;;;;;;;;;5032694;28;20050;-80
2024/03/03 05:53:00;;;;;;;34.95;18.83;;;;;;;;;;5034057;28;20083;-80
2024/03/03 05:55:27;;;;;;;37.85;18.65;;;;;;;;;;5033560;28;20099;-80
2024/03/03 05:57:54;;;;;;;39.28;18.63;;;;;;;;;;5034070;28;20196;-80
2024/03/03 06:00:22;;;;;;;39.05;18.05;;;;;;;;;;5032451;28;20050;-80
2024/03/03 06:02:49;;;;;;;38.38;19.02;;;;;;;;;;5033851;28;20046;-80
2024/03/03 06:05:17;;;;;;;35.90;17.38;;;;;;;;;;5032980;28;20478;-80
2024/03/03 06:07:44;;;;;;;41.03;18.48;;;;;;;;;;5034599;28;20053;-80
2024/03/03 06:10:11;;;;;;;37.58;18.08;;;;;;;;;;5034104;28;20056;-81
2024/03/03 06:12:39;;;;;;;29.83;17.80;;;;;;;;;;5033120;28;20462;-81
2024/03/03 06:15:07;;;;;;;35.03;18.45;;;;;;;;;;5035448;28;20046;-80
2024/03/03 06:17:34;;;;;;;36.65;18.00;;;;;;;;;;5034697;28;20103;-81
2024/03/03 06:20:02;;;;;;;37.50;19.38;;;;;;;;;;5035699;28;20056;-81
2024/03/03 06:22:29;;;;;;;39.20;18.75;;;;;;;;;;5034396;28;20053;-81
2024/03/03 06:24:56;;;;;;;33.20;17.38;;;;;;;;;;5034423;28;20500;-80
2024/03/03 06:27:24;;;;;;;41.33;19.50;;;;;;;;;;5034360;28;20085;-80
2024/03/03 06:29:51;;;;;;;39.85;17.70;;;;;;;;;;5035369;28;20053;-81
2024/03/03 06:32:18;;;;;;;49.70;20.33;;;;;;;;;;5029138;28;20409;-81
2024/03/03 06:34:48;;;;;;;35.38;18.92;;;;;;;;;;5036828;28;20132;-80
2024/03/03 06:37:15;;;;;;;45.97;19.85;;;;;;;;;;5037964;28;20053;-81
2024/03/03 06:39:44;;;;;;;37.92;18.67;;;;;;;;;;5037990;28;20221;-80
2024/03/03 06:42:11;;;;;;;34.95;18.42;;;;;;;;;;5037059;28;20050;-81
2024/03/03 06:44:42;;;;;;;43.67;19.45;;;;;;;;;;5036820;28;20482;-81
2024/03/03 06:47:09;;;;;;;60.92;21.52;;;;;;;;;;5037091;28;20472;-81
2024/03/03 06:49:36;;;;;;;37.35;19.08;;;;;;;;;;5037353;28;20054;-80
2024/03/03 06:52:03;;;;;;;39.92;19.85;;;;;;;;;;5037963;28;20053;-81
2024/03/03 06:54:31;;;;;;;41.00;20.27;;;;;;;;;;5036580;28;20073;-81
2024/03/03 06:56:58;;;;;;;48.40;23.55;;;;;;;;;;5036490;28;20140;-80
2024/03/03 06:59:27;;;;;;;51.35;24.02;;;;;;;;;;5038109;28;20135;-80
2024/03/03 07:01:54;;;;;;;41.78;21.58;;;;;;;;;;5037605;28;20045;-81
2024/03/03 07:04:25;;;;;;;46.53;22.98;;;;;;;;;;5038936;28;20045;-81
2024/03/03 07:06:53;;;;;;;42.30;20.58;;;;;;;;;;5041232;28;20050;-81
2024/03/03 07:09:24;;;;;;;38.53;18.70;;;;;;;;;;5040221;28;20061;-81
2024/03/03 07:11:52;;;;;;;34.70;18.05;;;;;;;;;;5039345;28;20053;-81
2024/03/03 07:14:20;;;;;;;38.08;19.55;;;;;;;;;;5039060;28;20057;-81
2024/03/03 07:16:48;;;;;;;42.40;21.20;;;;;;;;;;5039282;28;20046;-81
2024/03/03 07:19:15;;;;;;;36.60;19.13;;;;;;;;;;5040708;28;20056;-81
2024/03/03 07:21:43;;;;;;;33.85;18.85;;;;;;;;;;5039775;28;20091;-81
2024/03/03 07:24:10;;;;;;;36.22;20.42;;;;;;;;;;5038491;28;20049;-81
2024/03/03 07:26:37;;;;;;;31.95;17.92;;;;;;;;;;5037803;28;20103;-81
2024/03/03 07:29:05;;;;;;;31.10;16.60;;;;;;;;;;5041332;28;20049;-82
2024/03/03 07:31:32;;;;;;;42.53;20.50;;;;;;;;;;5042368;28;20053;-81
2024/03/03 07:33:59;;;;;;;37.25;19.02;;;;;;;;;;5041121;28;20053;-81
2024/03/03 07:36:26;;;;;;;38.50;19.20;;;;;;;;;;5040838;28;20049;-81
2024/03/03 07:38:54;;;;;;;76.57;25.13;;;;;;;;;;5037510;28;20100;-81
2024/03/03 07:41:21;;;;;;;44.83;23.15;;;;;;;;;;5037215;28;20493;-82
2024/03/03 07:43:48;;;;;;;59.03;25.02;;;;;;;;;;5038194;28;20463;-81
2024/03/03 07:46:15;;;;;;;51.00;24.13;;;;;;;;;;5036914;28;20084;-81
2024/03/03 07:48:44;;;;;;;72.85;37.40;;;;;;;;;;5036918;28;20041;-81
2024/03/03 07:51:12;;;;;;;62.78;30.58;;;;;;;;;;5037638;28;20107;-81
2024/03/03 07:53:39;;;;;;;77.20;40.30;;;;;;;;;;5036168;28;20111;-81
2024/03/03 07:56:07;;;;;;;41.45;22.52;;;;;;;;;;5037750;28;20053;-81
2024/03/03 07:58:36;;;;;;;42.38;23.40;;;;;;;;;;5036003;28;20056;-81
2024/03/03 08:01:05;;;;;;;36.08;20.25;;;;;;;;;;5036277;28;20412;-81
2024/03/03 08:03:33;;;;;;;42.58;22.95;;;;;;;;;;5027672;28;20052;-81
2024/03/03 08:06:01;;;;;;;32.17;20.77;;;;;;;;;;5037425;28;20068;-81
2024/03/03 08:08:29;;;;;;;43.03;23.85;;;;;;;;;;5036880;28;20067;-81
2024/03/03 08:10:56;;;;;;;42.42;23.52;;;;;;;;;;5035791;28;20053;-81
2024/03/03 08:13:23;;;;;;;31.70;20.90;;;;;;;;;;5037396;28;20058;-81
2024/03/03 08:15:50;;;;;;;28.33;18.77;;;;;;;;;;5035923;28;20516;-81
2024/03/03 08:18:17;;;;;;;29.23;18.13;;;;;;;;;;5036893;28;20057;-81
2024/03/03 08:20:45;;;;;;;29.88;18.35;;;;;;;;;;5035887;28;20045;-81
2024/03/03 08:23:14;;;;;;;26.83;17.52;;;;;;;;;;5034807;28;20072;-81
2024/03/03 08:25:42;;;;;;;31.38;18.55;;;;;;;;;;5034286;28;20075;-81
2024/03/03 08:28:09;;;;;;;30.77;18.38;;;;;;;;;;5035396;28;20068;-81
2024/03/03 08:30:37;;;;;;;35.33;20.50;;;;;;;;;;5034912;28;20049;-81
2024/03/03 08:33:04;;;;;;;30.88;19.27;;;;;;;;;;5034127;28;20049;-82
2024/03/03 08:35:31;;;;;;;28.58;18.33;;;;;;;;;;5044704;28;20060;-81
2024/03/03 08:37:58;;;;;;;28.20;17.98;;;;;;;;;;5040079;28;20050;-82
2024/03/03 08:40:26;;;;;;;27.05;16.88;;;;;;;;;;5035817;28;20042;-82
2024/03/03 08:42:54;;;;;;;26.52;16.88;;;;;;;;;;5038551;28;20049;-82
2024/03/03 08:45:21;;;;;;;27.08;18.52;;;;;;;;;;5038172;28;20074;-81
2024/03/03 08:47:49;;;;;;;29.58;18.73;;;;;;;;;;5038875;28;20050;-81
2024/03/03 08:50:16;;;;;;;27.60;17.95;;;;;;;;;;5036923;28;20053;-81
2024/03/03 08:52:43;;;;;;;25.77;17.25;;;;;;;;;;5036444;28;20423;-82
2024/03/03 08:55:10;;;;;;;22.33;15.98;;;;;;;;;;5037594;28;20428;-81
2024/03/03 08:57:38;;;;;;;16.70;12.88;;;;;;;;;;5037445;28;20064;-81
2024/03/03 09:00:12;;;;;;;16.55;12.52;;;;;;;;;;5037692;28;20046;-81
2024/03/03 09:02:40;;;;;;;16.63;11.73;;;;;;;;;;5037537;28;20555;-81
2024/03/03 09:05:07;;;;;;;12.18;9.77;;;;;;;;;;5038657;28;20088;-81
2024/03/03 09:07:35;;;;;;;10.63;8.15;;;;;;;;;;5036603;28;20055;-81
2024/03/03 09:10:04;;;;;;;9.25;7.93;;;;;;;;;;5036673;28;20050;-82
2024/03/03 09:12:31;;;;;;;8.82;7.93;;;;;;;;;;5037689;28;20045;-81
2024/03/03 09:15:00;;;;;;;9.65;8.52;;;;;;;;;;5038251;28;20074;-81
2024/03/03 09:17:27;;;;;;;8.90;7.75;;;;;;;;;;5036143;28;20504;-81
2024/03/03 09:19:54;;;;;;;9.98;7.88;;;;;;;;;;5036630;28;20504;-82
2024/03/03 09:22:21;;;;;;;9.82;7.88;;;;;;;;;;5036371;28;20111;-82
2024/03/03 09:24:49;;;;;;;10.43;8.45;;;;;;;;;;5039075;28;20053;-82
2024/03/03 09:27:17;;;;;;;8.48;7.63;;;;;;;;;;5037151;28;20492;-81
2024/03/03 09:29:44;;;;;;;8.35;7.47;;;;;;;;;;5037725;28;20095;-82
2024/03/03 09:32:11;;;;;;;8.85;6.60;;;;;;;;;;5037466;28;20536;-82
2024/03/03 09:34:39;;;;;;;7.53;6.72;;;;;;;;;;5035305;28;20060;-82
2024/03/03 09:37:06;;;;;;;8.30;7.50;;;;;;;;;;5040643;28;20045;-82
2024/03/03 09:39:33;;;;;;;7.82;7.03;;;;;;;;;;5039541;28;20045;-82
2024/03/03 09:42:00;;;;;;;8.48;7.47;;;;;;;;;;5038367;28;20417;-80
2024/03/03 09:44:31;;;;;;;10.25;7.45;;;;;;;;;;5038528;28;20052;-81
2024/03/03 09:46:58;;;;;;;6.60;6.00;;;;;;;;;;5038102;28;20057;-80
2024/03/03 09:49:25;;;;;;;7.53;6.50;;;;;;;;;;5037025;28;20132;-81
2024/03/03 09:51:54;;;;;;;7.82;6.95;;;;;;;;;;5037707;28;20057;-81
2024/03/03 09:54:22;;;;;;;9.18;7.93;;;;;;;;;;5034919;28;20461;-81
2024/03/03 09:56:53;;;;;;;9.68;8.68;;;;;;;;;;5033464;28;20054;-81
2024/03/03 09:59:20;;;;;;;9.65;7.93;;;;;;;;;;5034482;28;20053;-81
2024/03/03 10:01:51;;;;;;;7.50;6.75;;;;;;;;;;5033210;28;20523;-81
2024/03/03 10:04:21;;;;;;;7.65;6.80;;;;;;;;;;5037145;28;20042;-81
2024/03/03 10:06:52;;;;;;;9.13;8.23;;;;;;;;;;5042828;28;20050;-81
2024/03/03 10:09:21;;;;;;;8.85;7.85;;;;;;;;;;5043745;28;20056;-82
2024/03/03 10:11:50;;;;;;;7.68;7.00;;;;;;;;;;5042600;28;20050;-81
2024/03/03 10:14:18;;;;;;;9.25;8.00;;;;;;;;;;5041449;28;20050;-81
2024/03/03 10:16:46;;;;;;;9.77;8.15;;;;;;;;;;5040677;28;20072;-81
2024/03/03 10:19:13;;;;;;;9.27;8.32;;;;;;;;;;5040342;28;20496;-81
2024/03/03 10:21:40;;;;;;;10.65;8.55;;;;;;;;;;5032478;28;20046;-81
2024/03/03 10:24:27;;;;;;;9.73;8.55;;;;;;;;;;5039275;28;20075;-81
2024/03/03 10:26:55;;;;;;;9.85;8.85;;;;;;;;;;5041303;28;20048;-82
2024/03/03 10:29:27;;;;;;;8.45;7.65;;;;;;;;;;5040763;28;20041;-82
2024/03/03 10:31:55;;;;;;;10.68;8.75;;;;;;;;;;5040454;28;20054;-82
2024/03/03 10:34:23;;;;;;;12.13;9.82;;;;;;;;;;5040908;28;20141;-81
2024/03/03 10:37:01;;;;;;;10.77;8.73;;;;;;;;;;5041786;28;20059;-82
2024/03/03 10:39:29;;;;;;;10.88;9.07;;;;;;;;;;5041771;28;20092;-82
2024/03/03 10:41:57;;;;;;;123.28;96.30;;;;;;;;;;5042297;28;20100;-82
2024/03/03 10:44:24;;;;;;;10.73;9.43;;;;;;;;;;5042275;28;20053;-81
2024/03/03 10:46:51;;;;;;;9.70;8.70;;;;;;;;;;5041043;28;20060;-82
2024/03/03 10:49:19;;;;;;;17.60;15.68;;;;;;;;;;5040606;28;20492;-82
2024/03/03 10:51:47;;;;;;;12.85;11.45;;;;;;;;;;5041499;28;20041;-82
2024/03/03 10:54:15;;;;;;;10.45;9.38;;;;;;;;;;5038533;28;20045;-82
2024/03/03 10:56:43;;;;;;;59.85;47.38;;;;;;;;;;5038050;28;20057;-82
2024/03/03 10:59:11;;;;;;;12.35;9.80;;;;;;;;;;5038240;28;20045;-82
2024/03/03 11:01:39;;;;;;;9.30;8.07;;;;;;;;;;5040518;28;20056;-82
2024/03/03 11:04:07;;;;;;;8.77;7.65;;;;;;;;;;5039337;28;20045;-82
2024/03/03 11:06:35;;;;;;;10.70;9.70;;;;;;;;;;5040538;28;20092;-82
2024/03/03 11:09:02;;;;;;;12.23;10.95;;;;;;;;;;5039120;28;20045;-82
2024/03/03 11:11:32;;;;;;;10.23;8.18;;;;;;;;;;5040677;28;20053;-82
2024/03/03 11:14:04;;;;;;;7.32;6.57;;;;;;;;;;5037562;23;20058;-85
2024/03/03 11:16:33;;;;;;;9.13;7.15;;;;;;;;;;5015705;28;20049;-85
2024/03/03 11:19:04;;;;;;;8.10;7.25;;;;;;;;;;5017859;28;20080;-85
2024/03/03 11:21:35;;;;;;;8.02;7.20;;;;;;;;;;5012997;28;20052;-85
2024/03/03 11:24:05;;;;;;;11.50;7.70;;;;;;;;;;5015581;28;20042;-85
2024/03/03 11:26:53;;;;;;;7.80;7.07;;;;;;;;;;5007130;28;20073;-85
2024/03/03 11:29:22;;;;;;;8.40;7.47;;;;;;;;;;5017087;28;20107;-85
2024/03/03 11:31:49;;;;;;;7.82;7.03;;;;;;;;;;5008942;28;20086;-85
2024/03/03 11:34:16;;;;;;;8.63;7.43;;;;;;;;;;5015254;28;20078;-85
2024/03/03 11:36:44;;;;;;;12.02;8.75;;;;;;;;;;5018479;28;20080;-85
2024/03/03 11:39:15;;;;;;;8.63;7.38;;;;;;;;;;5020433;28;20053;-85
2024/03/03 11:41:44;;;;;;;8.93;7.90;;;;;;;;;;5012822;28;20050;-84
2024/03/03 11:44:30;;;;;;;10.40;8.48;;;;;;;;;;5012542;28;20046;-84
2024/03/03 11:46:58;;;;;;;8.82;7.63;;;;;;;;;;5010919;28;20052;-84
2024/03/03 11:49:25;;;;;;;9.15;7.57;;;;;;;;;;5018916;28;20082;-84
2024/03/03 11:51:53;;;;;;;8.27;7.50;;;;;;;;;;5018947;28;20057;-85
2024/03/03 11:54:30;;;;;;;7.72;6.93;;;;;;;;;;5019200;28;20133;-83
2024/03/03 11:57:02;;;;;;;8.50;7.60;;;;;;;;;;5003849;28;20061;-84
2024/03/03 11:59:33;;;;;;;12.55;9.07;;;;;;;;;;5010677;28;20393;-84
2024/03/03 12:02:00;;;;;;;9.48;8.52;;;;;;;;;;5014083;28;20053;-84
2024/03/03 12:04:28;;;;;;;10.52;8.95;;;;;;;;;;5013932;28;20056;-84
2024/03/03 12:06:56;;;;;;;10.80;9.43;;;;;;;;;;5011412;28;20073;-85
2024/03/03 12:09:23;;;;;;;9.77;8.48;;;;;;;;;;5009856;28;20050;-84
2024/03/03 12:11:52;;;;;;;10.48;9.38;;;;;;;;;;5012977;28;20050;-84
2024/03/03 12:14:20;;;;;;;14.65;8.95;;;;;;;;;;5013581;28;20054;-84
2024/03/03 12:16:48;;;;;;;9.10;8.05;;;;;;;;;;5012560;28;20054;-84
2024/03/03 12:19:17;;;;;;;9.27;8.35;;;;;;;;;;5014196;28;20046;-85
2024/03/03 12:21:48;;;;;;;9.57;8.60;;;;;;;;;;5009176;28;20050;-84
2024/03/03 12:24:16;;;;;;;14.60;8.77;;;;;;;;;;5009264;28;20114;-84
2024/03/03 12:26:53;;;;;;;10.05;9.00;;;;;;;;;;5002298;28;20050;-84
2024/03/03 12:29:20;;;;;;;9.73;8.43;;;;;;;;;;5011460;28;20411;-85
2024/03/03 12:31:48;;;;;;;10.65;8.68;;;;;;;;;;5011076;28;20100;-84
2024/03/03 12:34:17;;;;;;;10.23;8.02;;;;;;;;;;5013574;28;20112;-84
2024/03/03 12:36:45;;;;;;;11.38;8.95;;;;;;;;;;5009953;28;20121;-84
2024/03/03 12:39:12;;;;;;;9.52;8.13;;;;;;;;;;5015964;28;20089;-84
2024/03/03 12:41:39;;;;;;;11.18;8.02;;;;;;;;;;5010626;28;20470;-83
2024/03/03 12:44:07;;;;;;;10.25;8.43;;;;;;;;;;5011325;28;20046;-84
2024/03/03 12:46:40;;;;;;;10.50;7.70;;;;;;;;;;5012820;28;20073;-84
2024/03/03 12:49:07;;;;;;;6.18;5.57;;;;;;;;;;5015084;28;20114;-84
2024/03/03 12:51:35;;;;;;;11.77;8.50;;;;;;;;;;5012200;28;20421;-84
2024/03/03 12:54:04;;;;;;;9.77;8.77;;;;;;;;;;5022032;28;20057;-84
2024/03/03 12:56:31;;;;;;;10.93;8.40;;;;;;;;;;5021265;28;20062;-84
2024/03/03 12:59:00;;;;;;;8.38;7.38;;;;;;;;;;5015931;28;20062;-84
2024/03/03 13:01:28;;;;;;;10.73;8.55;;;;;;;;;;5013888;28;20435;-84
2024/03/03 13:03:55;;;;;;;5.43;4.93;;;;;;;;;;5009655;28;20051;-85
2024/03/03 13:06:22;;;;;;;6.70;5.00;;;;;;;;;;5015623;28;20526;-85
2024/03/03 13:08:52;;;;;;;6.65;5.07;;;;;;;;;;5012324;28;20087;-84
2024/03/03 13:11:20;;;;;;;5.60;4.93;;;;;;;;;;5010484;28;20060;-84
2024/03/03 13:13:49;;;;;;;6.47;5.70;;;;;;;;;;5015596;28;20525;-84
2024/03/03 13:16:16;;;;;;;7.20;5.72;;;;;;;;;;5008396;28;20050;-84
2024/03/03 13:18:44;;;;;;;5.05;4.47;;;;;;;;;;5007315;28;20107;-84
2024/03/03 13:21:15;;;;;;;5.38;4.60;;;;;;;;;;5009292;28;20114;-84
2024/03/03 13:23:43;;;;;;;5.65;5.15;;;;;;;;;;5007149;28;20054;-84
2024/03/03 13:26:10;;;;;;;6.70;6.07;;;;;;;;;;5001353;28;20042;-84
2024/03/03 13:28:38;;;;;;;6.53;5.93;;;;;;;;;;5015627;28;20096;-83
2024/03/03 13:31:06;;;;;;;10.70;6.60;;;;;;;;;;5011210;28;20121;-84
2024/03/03 13:33:38;;;;;;;17.85;12.23;;;;;;;;;;5006549;28;20050;-83
2024/03/03 13:36:09;;;;;;;7.07;6.13;;;;;;;;;;5011113;28;20045;-84
2024/03/03 13:38:37;;;;;;;7.10;6.28;;;;;;;;;;5009344;28;20050;-84
2024/03/03 13:41:05;;;;;;;9.00;7.40;;;;;;;;;;5011995;28;20496;-84
2024/03/03 13:43:32;;;;;;;15.57;12.32;;;;;;;;;;5013804;28;20542;-84
2024/03/03 13:46:00;;;;;;;14.32;9.93;;;;;;;;;;5004871;28;20108;-83
2024/03/03 13:48:27;;;;;;;12.27;7.20;;;;;;;;;;5012936;28;20129;-84
2024/03/03 13:50:55;;;;;;;11.07;6.82;;;;;;;;;;5007355;28;20050;-84
2024/03/03 13:53:22;;;;;;;11.32;8.00;;;;;;;;;;5006770;28;20117;-84
2024/03/03 13:55:50;;;;;;;12.00;9.98;;;;;;;;;;5009827;28;20467;-84
2024/03/03 13:58:17;;;;;;;9.50;7.07;;;;;;;;;;5016780;28;20072;-85
2024/03/03 14:00:45;;;;;;;9.65;8.43;;;;;;;;;;5006122;28;20137;-83
2024/03/03 14:03:12;;;;;;;11.98;8.77;;;;;;;;;;5007088;28;20130;-84
2024/03/03 14:05:40;;;;;;;12.00;9.55;;;;;;;;;;5010421;28;20042;-84
2024/03/03 14:08:07;;;;;;;13.10;9.38;;;;;;;;;;5012283;28;20049;-83
2024/03/03 14:10:34;;;;;;;5.70;4.30;;;;;;;;;;5010375;28;20053;-83
2024/03/03 14:13:02;;;;;;;10.23;9.05;;;;;;;;;;5009224;28;20050;-85
2024/03/03 14:15:32;;;;;;;33.17;28.83;;;;;;;;;;5010331;28;20050;-85
2024/03/03 14:18:00;;;;;;;8.38;6.07;;;;;;;;;;5013304;28;20046;-84
2024/03/03 14:20:28;;;;;;;6.55;5.93;;;;;;;;;;5015108;28;20507;-84
2024/03/03 14:22:56;;;;;;;8.60;7.00;;;;;;;;;;5000807;28;20171;-83
2024/03/03 14:25:24;;;;;;;10.93;7.78;;;;;;;;;;5009635;28;20069;-84
2024/03/03 14:27:53;;;;;;;7.20;5.70;;;;;;;;;;5008756;28;20444;-84